createdAt,value
2022-10-18T00:02:15.770Z,13.20
2022-10-18T00:04:45.640Z,13.10
2022-10-18T00:07:14.151Z,13.10
2022-10-18T00:09:42.639Z,13.10
2022-10-18T00:12:11.203Z,13.00
2022-10-18T00:14:39.690Z,13.00
2022-10-18T00:17:08.179Z,12.90
2022-10-18T00:19:36.623Z,12.90
2022-10-18T00:22:06.554Z,12.90
2022-10-18T00:24:34.965Z,12.70
2022-10-18T00:27:03.368Z,12.70
2022-10-18T00:29:31.762Z,12.60
2022-10-18T00:32:00.166Z,12.60
2022-10-18T00:34:28.655Z,12.60
2022-10-18T00:36:57.122Z,12.60
2022-10-18T00:39:26.986Z,12.60
2022-10-18T00:41:55.406Z,12.60
2022-10-18T00:45:02.506Z,12.60
2022-10-18T00:47:31.110Z,12.60
2022-10-18T00:50:03.374Z,12.50
2022-10-18T00:52:35.225Z,12.50
2022-10-18T00:55:06.416Z,12.50
2022-10-18T00:57:35.032Z,12.50
2022-10-18T01:00:07.582Z,12.50
2022-10-18T01:02:36.119Z,12.40
2022-10-18T01:05:04.803Z,12.40
2022-10-18T01:07:51.418Z,12.40
2022-10-18T01:10:29.567Z,12.40
2022-10-18T01:13:08.226Z,12.40
2022-10-18T01:15:42.343Z,12.40
2022-10-18T01:18:16.034Z,12.30
2022-10-18T01:21:03.917Z,12.20
2022-10-18T01:23:45.341Z,12.20
2022-10-18T01:26:36.257Z,12.00
2022-10-18T01:29:14.223Z,12.00
2022-10-18T01:31:46.683Z,12.00
2022-10-18T01:34:18.149Z,12.00
2022-10-18T01:36:49.198Z,12.00
2022-10-18T01:39:20.983Z,11.90
2022-10-18T01:41:50.840Z,11.80
2022-10-18T01:44:22.232Z,11.80
2022-10-18T01:46:52.634Z,11.80
2022-10-18T01:49:21.037Z,11.70
2022-10-18T01:51:49.476Z,11.70
2022-10-18T01:54:23.013Z,11.80
2022-10-18T01:56:57.740Z,11.70
2022-10-18T01:59:34.731Z,11.70
2022-10-18T02:02:10.977Z,11.70
2022-10-18T02:04:43.528Z,11.70
2022-10-18T02:07:18.701Z,11.70
2022-10-18T02:09:52.458Z,11.70
2022-10-18T02:12:21.985Z,11.60
2022-10-18T02:14:51.291Z,11.60
2022-10-18T02:17:22.206Z,11.60
2022-10-18T02:19:53.054Z,11.50
2022-10-18T02:22:22.008Z,11.50
2022-10-18T02:24:53.963Z,11.40
2022-10-18T02:27:22.759Z,11.40
2022-10-18T02:29:51.303Z,11.40
2022-10-18T02:32:26.966Z,11.40
2022-10-18T02:35:00.023Z,11.30
2022-10-18T02:37:30.636Z,11.30
2022-10-18T02:39:59.222Z,11.30
2022-10-18T02:42:34.937Z,11.30
2022-10-18T02:45:03.466Z,11.30
2022-10-18T02:47:33.455Z,11.30
2022-10-18T02:50:02.137Z,11.30
2022-10-18T02:52:30.546Z,11.30
2022-10-18T02:54:58.971Z,11.40
2022-10-18T02:57:27.324Z,11.40
2022-10-18T02:59:55.732Z,11.50
2022-10-18T03:02:24.224Z,11.50
2022-10-18T03:04:54.135Z,11.40
2022-10-18T03:07:22.601Z,11.40
2022-10-18T03:09:51.202Z,11.40
2022-10-18T03:12:19.997Z,11.40
2022-10-18T03:14:48.423Z,11.30
2022-10-18T03:17:16.919Z,11.30
2022-10-18T03:19:45.340Z,11.20
2022-10-18T03:22:15.138Z,11.20
2022-10-18T03:24:43.618Z,11.10
2022-10-18T03:27:12.142Z,11.00
2022-10-18T03:29:40.636Z,11.00
2022-10-18T03:32:09.327Z,11.00
2022-10-18T03:34:37.775Z,11.10
2022-10-18T03:37:06.248Z,11.00
2022-10-18T03:39:36.083Z,11.00
2022-10-18T03:42:04.542Z,10.90
2022-10-18T03:44:33.079Z,10.80
2022-10-18T03:47:01.669Z,10.80
2022-10-18T03:49:30.188Z,10.80
2022-10-18T03:51:58.615Z,10.80
2022-10-18T03:54:27.028Z,10.80
2022-10-18T03:56:56.846Z,10.80
2022-10-18T03:59:25.420Z,10.90
2022-10-18T04:01:54.114Z,10.80
2022-10-18T04:04:22.735Z,10.80
2022-10-18T04:06:51.210Z,10.80
2022-10-18T04:09:19.848Z,10.80
2022-10-18T04:11:48.839Z,10.70
2022-10-18T04:14:18.675Z,10.70
2022-10-18T04:16:47.123Z,10.60
2022-10-18T04:19:15.713Z,10.60
2022-10-18T04:21:44.166Z,10.60
2022-10-18T04:24:12.631Z,10.50
2022-10-18T04:26:41.026Z,10.40
2022-10-18T04:29:09.555Z,10.40
2022-10-18T04:31:39.312Z,10.40
2022-10-18T04:34:07.698Z,10.40
2022-10-18T04:36:36.158Z,10.40
2022-10-18T04:39:04.841Z,10.40
2022-10-18T04:41:33.258Z,10.40
2022-10-18T04:44:01.676Z,10.40
2022-10-18T04:46:30.234Z,10.40
2022-10-18T04:49:01.272Z,10.40
2022-10-18T04:51:29.881Z,10.30
2022-10-18T04:53:58.552Z,10.30
2022-10-18T04:56:27.098Z,10.30
2022-10-18T04:58:55.535Z,10.30
2022-10-18T05:01:24.131Z,10.30
2022-10-18T05:03:53.620Z,10.30
2022-10-18T05:06:24.834Z,10.30
2022-10-18T05:08:53.288Z,10.30
2022-10-18T05:11:21.740Z,10.30
2022-10-18T05:13:50.968Z,10.30
2022-10-18T05:16:19.440Z,10.30
2022-10-18T05:18:47.903Z,10.30
2022-10-18T05:21:16.408Z,10.30
2022-10-18T05:23:46.235Z,10.30
2022-10-18T05:26:14.705Z,10.40
2022-10-18T05:28:43.250Z,10.40
2022-10-18T05:31:12.679Z,10.30
2022-10-18T05:33:41.202Z,10.30
2022-10-18T05:36:10.170Z,10.40
2022-10-18T05:38:42.090Z,10.30
2022-10-18T05:41:12.747Z,10.20
2022-10-18T05:43:41.459Z,10.30
2022-10-18T05:46:14.791Z,10.30
2022-10-18T05:48:44.731Z,10.30
2022-10-18T05:51:13.302Z,10.30
2022-10-18T05:53:41.708Z,10.30
2022-10-18T05:56:12.460Z,10.20
2022-10-18T05:58:41.618Z,10.30
2022-10-18T06:01:11.012Z,10.30
2022-10-18T06:03:39.656Z,10.20
2022-10-18T06:06:09.991Z,10.20
2022-10-18T06:08:39.927Z,10.40
2022-10-18T06:11:08.949Z,10.40
2022-10-18T06:13:42.680Z,10.50
2022-10-18T06:16:12.334Z,10.50
2022-10-18T06:18:41.507Z,10.60
2022-10-18T06:21:10.483Z,10.70
2022-10-18T06:23:38.929Z,10.60
2022-10-18T06:26:08.630Z,10.70
2022-10-18T06:28:38.036Z,10.70
2022-10-18T06:31:07.964Z,10.60
2022-10-18T06:33:37.730Z,10.70
2022-10-18T06:36:08.151Z,10.80
2022-10-18T06:38:36.626Z,10.80
2022-10-18T06:41:05.709Z,10.80
2022-10-18T06:43:34.235Z,10.90
2022-10-18T06:46:03.291Z,10.90
2022-10-18T06:48:33.498Z,11.00
2022-10-18T06:51:03.604Z,11.00
2022-10-18T06:53:33.539Z,11.10
2022-10-18T06:56:02.700Z,11.10
2022-10-18T06:58:31.745Z,11.20
2022-10-18T07:01:00.282Z,11.30
2022-10-18T07:03:32.264Z,11.30
2022-10-18T07:06:01.836Z,11.30
2022-10-18T07:08:30.593Z,11.40
2022-10-18T07:10:59.168Z,11.50
2022-10-18T07:13:33.007Z,11.60
2022-10-18T07:16:03.586Z,11.60
2022-10-18T07:18:34.055Z,11.70
2022-10-18T07:21:03.740Z,11.80
2022-10-18T07:23:34.105Z,12.00
2022-10-18T07:26:02.880Z,12.10
2022-10-18T07:28:31.569Z,12.20
2022-10-18T07:31:06.321Z,12.40
2022-10-18T07:33:37.870Z,12.60
2022-10-18T07:36:07.445Z,12.70
2022-10-18T07:38:36.280Z,12.90
2022-10-18T07:41:07.343Z,13.00
2022-10-18T07:43:36.171Z,13.20
2022-10-18T07:46:06.029Z,13.50
2022-10-18T07:48:35.831Z,13.60
2022-10-18T07:51:04.894Z,13.80
2022-10-18T07:53:34.573Z,13.90
2022-10-18T07:56:07.107Z,14.10
2022-10-18T07:58:38.089Z,14.30
2022-10-18T08:01:07.687Z,14.40
2022-10-18T08:03:38.091Z,14.60
2022-10-18T08:06:09.084Z,14.80
2022-10-18T08:08:38.368Z,14.90
2022-10-18T08:11:08.600Z,14.90
2022-10-18T08:13:37.253Z,15.10
2022-10-18T08:16:07.624Z,15.10
2022-10-18T08:18:38.243Z,15.20
2022-10-18T08:21:09.398Z,15.30
2022-10-18T08:23:38.542Z,15.30
2022-10-18T08:26:08.861Z,15.40
2022-10-18T08:28:37.869Z,15.50
2022-10-18T08:31:07.342Z,15.50
2022-10-18T08:33:37.221Z,15.60
2022-10-18T08:36:07.701Z,15.70
2022-10-18T08:38:37.420Z,15.90
2022-10-18T08:41:29.062Z,15.90
2022-10-18T08:44:06.319Z,16.10
2022-10-18T08:46:37.023Z,16.20
2022-10-18T08:49:08.693Z,16.30
2022-10-18T08:51:40.261Z,16.40
2022-10-18T08:54:12.639Z,16.40
2022-10-18T08:56:44.772Z,16.60
2022-10-18T08:59:13.929Z,16.70
2022-10-18T09:04:37.036Z,16.80
2022-10-18T09:07:30.495Z,16.90
2022-10-18T09:10:02.866Z,16.80
2022-10-18T09:12:56.835Z,16.90
2022-10-18T09:15:32.147Z,17.00
2022-10-18T09:18:10.526Z,17.10
2022-10-18T09:20:50.838Z,17.10
2022-10-18T09:23:21.359Z,17.30
2022-10-18T09:25:51.000Z,17.30
2022-10-18T09:28:30.643Z,17.30
2022-10-18T09:31:05.649Z,17.40
2022-10-18T09:33:46.145Z,17.50
2022-10-18T09:36:19.787Z,17.50
2022-10-18T09:38:50.399Z,17.50
2022-10-18T09:41:22.002Z,17.40
2022-10-18T09:43:57.095Z,17.40
2022-10-18T09:46:28.968Z,17.50
2022-10-18T09:49:01.467Z,17.60
2022-10-18T09:51:36.074Z,17.70
2022-10-18T09:54:12.146Z,17.70
2022-10-18T09:56:44.379Z,17.80
2022-10-18T09:59:28.969Z,17.90
2022-10-18T10:01:57.711Z,17.90
2022-10-18T10:04:26.130Z,18.00
2022-10-18T10:06:57.320Z,18.00
2022-10-18T10:09:38.330Z,18.10
2022-10-18T10:12:06.793Z,18.10
2022-10-18T10:14:44.935Z,18.30
2022-10-18T10:17:23.793Z,18.40
2022-10-18T10:19:58.920Z,18.50
2022-10-18T10:22:34.770Z,18.60
2022-10-18T10:25:07.006Z,18.60
2022-10-18T10:27:44.109Z,18.70
2022-10-18T10:30:25.253Z,18.80
2022-10-18T10:32:57.351Z,18.80
2022-10-18T10:35:52.713Z,18.90
2022-10-18T10:38:26.054Z,19.00
2022-10-18T10:40:54.859Z,19.10
2022-10-18T10:43:38.122Z,19.20
2022-10-18T10:46:10.388Z,19.30
2022-10-18T10:48:48.092Z,19.30
2022-10-18T10:51:20.280Z,19.40
2022-10-18T10:53:52.982Z,19.50
2022-10-18T10:56:27.416Z,19.60
2022-10-18T10:58:57.970Z,19.60
2022-10-18T11:01:29.971Z,19.60
2022-10-18T11:04:01.344Z,19.80
2022-10-18T11:06:49.854Z,19.80
2022-10-18T11:09:28.910Z,19.90
2022-10-18T11:12:04.314Z,20.00
2022-10-18T11:14:38.023Z,20.00
2022-10-18T11:17:14.355Z,20.10
2022-10-18T11:19:56.093Z,20.10
2022-10-18T11:22:27.187Z,20.20
2022-10-18T11:24:57.090Z,20.20
2022-10-18T11:27:28.011Z,20.40
2022-10-18T11:30:24.303Z,20.40
2022-10-18T11:32:59.546Z,20.40
2022-10-18T11:35:38.754Z,20.40
2022-10-18T11:38:16.558Z,20.50
2022-10-18T11:40:58.639Z,20.60
2022-10-18T11:43:57.063Z,20.60
2022-10-18T11:46:25.331Z,20.80
2022-10-18T11:49:04.650Z,20.80
2022-10-18T11:51:56.311Z,20.80
2022-10-18T11:54:54.870Z,20.90
2022-10-18T11:57:37.178Z,21.00
2022-10-18T12:00:17.928Z,21.00
2022-10-18T12:03:16.512Z,21.10
2022-10-18T12:05:46.605Z,21.10
2022-10-18T12:08:17.685Z,21.10
2022-10-18T12:11:06.829Z,21.10
2022-10-18T12:13:41.841Z,21.20
2022-10-18T12:16:11.168Z,21.20
2022-10-18T12:18:48.898Z,21.20
2022-10-18T12:21:25.316Z,21.30
2022-10-18T12:23:56.731Z,21.30
2022-10-18T12:26:25.692Z,21.30
2022-10-18T12:29:04.656Z,21.30
2022-10-18T12:31:38.863Z,21.40
2022-10-18T12:34:35.068Z,21.40
2022-10-18T12:37:35.921Z,21.40
2022-10-18T12:40:12.100Z,21.40
2022-10-18T12:42:44.608Z,21.40
2022-10-18T12:45:32.504Z,21.50
2022-10-18T12:48:02.212Z,21.60
2022-10-18T12:50:35.080Z,21.60
2022-10-18T12:53:06.980Z,21.60
2022-10-18T12:55:37.954Z,21.60
2022-10-18T12:58:39.718Z,21.60
2022-10-18T13:01:09.613Z,21.60
2022-10-18T13:03:59.379Z,21.60
2022-10-18T13:07:20.903Z,21.60
2022-10-18T13:10:40.634Z,21.60
2022-10-18T13:13:40.537Z,21.50
2022-10-18T13:16:27.108Z,21.60
2022-10-18T13:18:58.284Z,21.60
2022-10-18T13:21:41.051Z,21.50
2022-10-18T13:24:31.544Z,21.50
2022-10-18T13:30:20.755Z,21.40
2022-10-18T13:32:57.446Z,21.40
2022-10-18T13:35:56.794Z,21.40
2022-10-18T13:38:43.191Z,21.50
2022-10-18T13:41:13.706Z,21.50
2022-10-18T13:44:00.604Z,21.40
2022-10-18T13:47:02.211Z,21.40
2022-10-18T13:49:35.950Z,21.50
2022-10-18T13:52:10.127Z,21.50
2022-10-18T13:54:49.730Z,21.40
2022-10-18T13:57:29.722Z,21.40
2022-10-18T14:00:31.018Z,21.30
2022-10-18T14:03:55.510Z,21.30
2022-10-18T14:06:24.175Z,21.20
2022-10-18T14:08:57.477Z,21.10
2022-10-18T14:11:33.450Z,21.20
2022-10-18T14:14:09.148Z,21.20
2022-10-18T14:16:40.182Z,21.20
2022-10-18T14:19:19.102Z,21.10
2022-10-18T14:21:53.679Z,21.00
2022-10-18T14:24:24.874Z,21.00
2022-10-18T14:27:13.941Z,21.00
2022-10-18T14:29:42.740Z,21.00
2022-10-18T14:32:12.600Z,21.00
2022-10-18T14:34:44.868Z,21.00
2022-10-18T14:37:28.447Z,21.00
2022-10-18T14:39:56.961Z,21.00
2022-10-18T14:42:26.531Z,20.90
2022-10-18T14:44:56.416Z,20.90
2022-10-18T14:47:26.564Z,20.90
2022-10-18T14:49:57.723Z,20.80
2022-10-18T14:52:34.317Z,20.80
2022-10-18T14:55:04.019Z,20.80
2022-10-18T14:57:34.447Z,20.70
2022-10-18T15:00:05.639Z,20.70
2022-10-18T15:02:36.686Z,20.60
2022-10-18T15:05:08.926Z,20.50
2022-10-18T15:07:38.855Z,20.50
2022-10-18T15:10:08.207Z,20.40
2022-10-18T15:12:45.762Z,20.40
2022-10-18T15:15:28.862Z,20.30
2022-10-18T15:17:57.455Z,20.30
2022-10-18T15:20:28.564Z,20.20
2022-10-18T15:23:23.286Z,20.10
2022-10-18T15:25:52.638Z,20.10
2022-10-18T15:28:29.665Z,20.00
2022-10-18T15:30:58.842Z,19.90
2022-10-18T15:33:33.644Z,19.80
2022-10-18T15:36:09.768Z,19.70
2022-10-18T15:38:40.186Z,19.60
2022-10-18T15:41:42.505Z,19.60
2022-10-18T15:44:23.655Z,19.50
2022-10-18T15:46:54.003Z,19.40
2022-10-18T15:49:54.563Z,19.30
2022-10-18T15:52:41.493Z,19.10
2022-10-18T15:55:49.117Z,19.00
2022-10-18T15:58:20.452Z,18.90
2022-10-18T16:00:49.947Z,18.70
2022-10-18T16:03:19.852Z,18.70
2022-10-18T16:05:48.261Z,18.50
2022-10-18T16:08:25.244Z,18.40
2022-10-18T16:10:55.147Z,18.30
2022-10-18T16:13:23.686Z,18.20
2022-10-18T16:15:52.249Z,18.10
2022-10-18T16:18:21.562Z,18.00
2022-10-18T16:20:50.102Z,17.90
2022-10-18T16:23:20.868Z,17.80
2022-10-18T16:25:49.884Z,17.70
2022-10-18T16:28:21.138Z,17.70
2022-10-18T16:30:55.190Z,17.60
2022-10-18T16:33:23.999Z,17.60
2022-10-18T16:35:52.860Z,17.50
2022-10-18T16:38:32.564Z,17.50
2022-10-18T16:41:04.460Z,17.40
2022-10-18T16:43:34.762Z,17.20
2022-10-18T16:46:04.026Z,17.10
2022-10-18T16:48:32.850Z,17.00
2022-10-18T16:51:01.289Z,17.00
2022-10-18T16:53:29.748Z,16.90
2022-10-18T16:56:00.088Z,16.80
2022-10-18T16:58:29.648Z,16.80
2022-10-18T17:01:01.827Z,16.70
2022-10-18T17:03:32.503Z,16.60
2022-10-18T17:06:00.981Z,16.60
2022-10-18T17:08:29.575Z,16.60
2022-10-18T17:10:59.997Z,16.50
2022-10-18T17:13:28.583Z,16.40
2022-10-18T17:15:57.029Z,16.20
2022-10-18T17:18:27.617Z,16.20
2022-10-18T17:20:56.610Z,16.10
2022-10-18T17:23:25.068Z,16.10
2022-10-18T17:26:05.183Z,16.00
2022-10-18T17:28:36.464Z,16.00
2022-10-18T17:31:07.496Z,16.00
2022-10-18T17:33:37.744Z,15.90
2022-10-18T17:36:06.408Z,15.90
2022-10-18T17:38:34.950Z,15.80
2022-10-18T17:41:07.408Z,15.70
2022-10-18T17:43:36.096Z,15.60
2022-10-18T17:46:05.124Z,15.60
2022-10-18T17:48:33.590Z,15.60
2022-10-18T17:51:08.131Z,15.60
2022-10-18T17:53:36.749Z,15.50
2022-10-18T17:56:05.999Z,15.50
2022-10-18T17:58:34.646Z,15.40
2022-10-18T18:01:10.658Z,15.50
2022-10-18T18:03:39.433Z,15.40
2022-10-18T18:06:16.994Z,15.50
2022-10-18T18:08:45.976Z,15.40
2022-10-18T18:11:14.846Z,15.40
2022-10-18T18:13:43.565Z,15.40
2022-10-18T18:16:13.996Z,15.20
2022-10-18T18:18:43.514Z,15.20
2022-10-18T18:21:12.267Z,15.20
2022-10-18T18:23:42.046Z,15.20
2022-10-18T18:26:10.761Z,15.10
2022-10-18T18:28:39.382Z,15.00
2022-10-18T18:31:08.554Z,15.00
2022-10-18T18:33:37.591Z,14.90
2022-10-18T18:36:07.014Z,14.80
2022-10-18T18:38:37.510Z,14.80
2022-10-18T18:41:09.359Z,14.80
2022-10-18T18:43:39.163Z,14.80
2022-10-18T18:46:07.864Z,14.70
2022-10-18T18:48:36.951Z,14.80
2022-10-18T18:51:06.893Z,14.80
2022-10-18T18:53:35.325Z,14.80
2022-10-18T18:56:05.701Z,14.70
2022-10-18T18:58:37.127Z,14.70
2022-10-18T19:01:09.569Z,14.70
2022-10-18T19:03:40.198Z,14.60
2022-10-18T19:06:10.285Z,14.60
2022-10-18T19:08:40.004Z,14.60
2022-10-18T19:11:09.693Z,14.50
2022-10-18T19:13:39.508Z,14.40
2022-10-18T19:16:26.373Z,14.30
2022-10-18T19:19:00.408Z,14.30
2022-10-18T19:21:31.222Z,14.20
2022-10-18T19:23:59.735Z,14.20
2022-10-18T19:26:34.732Z,14.20
2022-10-18T19:29:09.739Z,14.10
2022-10-18T19:31:39.292Z,14.10
2022-10-18T19:34:09.893Z,14.10
2022-10-18T19:36:39.156Z,14.10
2022-10-18T19:39:09.152Z,14.10
2022-10-18T19:41:37.797Z,14.00
2022-10-18T19:44:07.917Z,14.00
2022-10-18T19:46:36.434Z,14.00
2022-10-18T19:49:05.001Z,13.90
2022-10-18T19:51:33.452Z,13.90
2022-10-18T19:54:02.044Z,13.90
2022-10-18T19:56:31.239Z,13.80
2022-10-18T19:59:00.632Z,13.80
2022-10-18T20:01:30.921Z,13.80
2022-10-18T20:03:59.601Z,13.80
2022-10-18T20:06:28.315Z,13.80
2022-10-18T20:08:56.783Z,13.90
2022-10-18T20:11:28.058Z,13.80
2022-10-18T20:13:57.382Z,13.70
2022-10-18T20:16:28.777Z,13.70
2022-10-18T20:18:59.989Z,13.70
2022-10-18T20:21:29.398Z,13.70
2022-10-18T20:23:58.167Z,13.70
2022-10-18T20:26:26.719Z,13.60
2022-10-18T20:28:57.855Z,13.60
2022-10-18T20:31:28.216Z,13.50
2022-10-18T20:33:59.513Z,13.50
2022-10-18T20:36:28.738Z,13.50
2022-10-18T20:38:57.342Z,13.40
2022-10-18T20:41:27.297Z,13.30
2022-10-18T20:43:56.943Z,13.30
2022-10-18T20:46:25.605Z,13.30
2022-10-18T20:48:54.773Z,13.30
2022-10-18T20:51:24.766Z,13.30
2022-10-18T20:53:54.436Z,13.30
2022-10-18T20:56:26.476Z,13.20
2022-10-18T20:58:56.568Z,13.20
2022-10-18T21:01:26.872Z,13.20
2022-10-18T21:03:56.708Z,13.20
2022-10-18T21:06:27.494Z,13.20
2022-10-18T21:08:56.671Z,13.10
2022-10-18T21:11:26.351Z,13.00
2022-10-18T21:13:56.283Z,12.90
2022-10-18T21:16:24.736Z,13.00
2022-10-18T21:18:53.685Z,12.90
2022-10-18T21:21:24.016Z,12.80
2022-10-18T21:23:54.386Z,12.80
2022-10-18T21:26:23.737Z,12.80
2022-10-18T21:28:52.791Z,12.80
2022-10-18T21:31:22.651Z,12.90
2022-10-18T21:33:54.438Z,12.80
2022-10-18T21:36:23.423Z,12.80
2022-10-18T21:38:53.344Z,12.90
2022-10-18T21:41:23.371Z,12.80
2022-10-18T21:43:52.608Z,12.80
2022-10-18T21:46:22.155Z,12.80
2022-10-18T21:48:52.141Z,12.80
2022-10-18T21:51:22.426Z,12.70
2022-10-18T21:53:53.870Z,12.70
2022-10-18T21:56:23.651Z,12.70
2022-10-18T21:58:52.084Z,12.70
2022-10-18T22:01:21.948Z,12.50
2022-10-18T22:03:51.820Z,12.50
2022-10-18T22:06:21.006Z,12.50
2022-10-18T22:08:53.351Z,12.50
2022-10-18T22:11:24.327Z,12.50
2022-10-18T22:13:53.850Z,12.50
2022-10-18T22:16:22.754Z,12.50
2022-10-18T22:18:51.948Z,12.50
2022-10-18T22:21:22.181Z,12.50
2022-10-18T22:23:51.830Z,12.50
2022-10-18T22:26:23.170Z,12.50
2022-10-18T22:28:56.028Z,12.40
2022-10-18T22:31:26.363Z,12.40
2022-10-18T22:33:55.595Z,12.40
2022-10-18T22:36:24.413Z,12.30
2022-10-18T22:38:53.010Z,12.30
2022-10-18T22:41:22.803Z,12.20
2022-10-18T22:43:51.599Z,12.30
2022-10-18T22:46:20.218Z,12.20
2022-10-18T22:48:48.943Z,12.30
2022-10-18T22:51:17.369Z,12.30
2022-10-18T22:53:46.119Z,12.30
2022-10-18T22:56:17.125Z,12.30
2022-10-18T22:58:48.013Z,12.40
2022-10-18T23:01:18.250Z,12.30
2022-10-18T23:03:46.893Z,12.40
2022-10-18T23:06:23.834Z,12.40
2022-10-18T23:08:53.954Z,12.40
2022-10-18T23:11:22.534Z,12.40
2022-10-18T23:13:52.496Z,12.30
2022-10-18T23:16:21.211Z,12.40
2022-10-18T23:18:54.023Z,12.40
2022-10-18T23:21:24.351Z,12.40
2022-10-18T23:23:53.796Z,12.40
2022-10-18T23:26:23.859Z,12.50
2022-10-18T23:28:54.675Z,12.40
2022-10-18T23:31:24.882Z,12.30
2022-10-18T23:33:54.681Z,12.30
2022-10-18T23:36:23.958Z,12.20
2022-10-18T23:38:52.548Z,12.20
2022-10-18T23:41:21.046Z,12.10
2022-10-18T23:43:49.739Z,12.20
2022-10-18T23:46:20.295Z,12.30
2022-10-18T23:48:49.047Z,12.40
2022-10-18T23:51:18.458Z,12.40
2022-10-18T23:53:47.018Z,12.50
2022-10-18T23:56:16.530Z,12.50
2022-10-18T23:58:45.852Z,12.60
